sensor_id;sensor_type;location;lat;lon;timestamp;P1;durP1;ratioP1;P2;durP2;ratioP2
64688;SDS011;62504;46.070;14.492;2023-02-08T00:00:48;89.03;;;28.90;;
64688;SDS011;62504;46.070;14.492;2023-02-08T00:03:13;81.13;;;28.00;;
64688;SDS011;62504;46.070;14.492;2023-02-08T00:05:39;76.23;;;26.23;;
64688;SDS011;62504;46.070;14.492;2023-02-08T00:08:05;77.27;;;25.97;;
64688;SDS011;62504;46.070;14.492;2023-02-08T00:10:31;68.47;;;24.43;;
64688;SDS011;62504;46.070;14.492;2023-02-08T00:12:57;78.57;;;26.57;;
64688;SDS011;62504;46.070;14.492;2023-02-08T00:15:23;72.90;;;25.37;;
64688;SDS011;62504;46.070;14.492;2023-02-08T00:17:48;68.20;;;24.17;;
64688;SDS011;62504;46.070;14.492;2023-02-08T00:20:14;67.43;;;24.57;;
64688;SDS011;62504;46.070;14.492;2023-02-08T00:22:40;62.53;;;23.63;;
64688;SDS011;62504;46.070;14.492;2023-02-08T00:25:06;61.17;;;22.20;;
64688;SDS011;62504;46.070;14.492;2023-02-08T00:27:32;56.77;;;22.03;;
64688;SDS011;62504;46.070;14.492;2023-02-08T00:29:58;58.67;;;21.47;;
64688;SDS011;62504;46.070;14.492;2023-02-08T00:32:24;55.13;;;21.50;;
64688;SDS011;62504;46.070;14.492;2023-02-08T00:34:49;45.43;;;17.63;;
64688;SDS011;62504;46.070;14.492;2023-02-08T00:37:15;44.30;;;17.87;;
64688;SDS011;62504;46.070;14.492;2023-02-08T00:39:41;49.60;;;17.37;;
64688;SDS011;62504;46.070;14.492;2023-02-08T00:42:07;47.43;;;17.63;;
64688;SDS011;62504;46.070;14.492;2023-02-08T00:44:32;44.13;;;16.20;;
64688;SDS011;62504;46.070;14.492;2023-02-08T00:46:58;44.43;;;16.47;;
64688;SDS011;62504;46.070;14.492;2023-02-08T00:49:24;39.93;;;15.83;;
64688;SDS011;62504;46.070;14.492;2023-02-08T00:51:50;43.67;;;16.10;;
64688;SDS011;62504;46.070;14.492;2023-02-08T00:54:16;40.53;;;16.20;;
64688;SDS011;62504;46.070;14.492;2023-02-08T00:56:45;42.50;;;16.47;;
64688;SDS011;62504;46.070;14.492;2023-02-08T00:59:11;45.60;;;16.53;;
64688;SDS011;62504;46.070;14.492;2023-02-08T01:01:37;42.87;;;16.90;;
64688;SDS011;62504;46.070;14.492;2023-02-08T01:04:03;45.10;;;16.90;;
64688;SDS011;62504;46.070;14.492;2023-02-08T01:06:30;46.33;;;17.47;;
64688;SDS011;62504;46.070;14.492;2023-02-08T01:08:56;43.63;;;16.23;;
64688;SDS011;62504;46.070;14.492;2023-02-08T01:11:23;41.27;;;16.97;;
64688;SDS011;62504;46.070;14.492;2023-02-08T01:13:53;43.33;;;16.63;;
64688;SDS011;62504;46.070;14.492;2023-02-08T01:16:25;39.83;;;14.97;;
64688;SDS011;62504;46.070;14.492;2023-02-08T01:18:53;45.33;;;17.07;;
64688;SDS011;62504;46.070;14.492;2023-02-08T01:21:25;48.37;;;17.53;;
64688;SDS011;62504;46.070;14.492;2023-02-08T01:23:52;49.40;;;16.10;;
64688;SDS011;62504;46.070;14.492;2023-02-08T01:26:18;43.97;;;17.00;;
64688;SDS011;62504;46.070;14.492;2023-02-08T01:28:45;42.07;;;16.37;;
64688;SDS011;62504;46.070;14.492;2023-02-08T01:31:12;42.53;;;17.07;;
64688;SDS011;62504;46.070;14.492;2023-02-08T01:33:40;57.73;;;17.50;;
64688;SDS011;62504;46.070;14.492;2023-02-08T01:36:06;42.33;;;15.87;;
64688;SDS011;62504;46.070;14.492;2023-02-08T01:38:33;44.80;;;16.90;;
64688;SDS011;62504;46.070;14.492;2023-02-08T01:41:00;49.40;;;17.30;;
64688;SDS011;62504;46.070;14.492;2023-02-08T01:43:29;43.10;;;16.27;;
64688;SDS011;62504;46.070;14.492;2023-02-08T01:45:57;47.20;;;17.20;;
64688;SDS011;62504;46.070;14.492;2023-02-08T01:48:24;47.90;;;17.10;;
64688;SDS011;62504;46.070;14.492;2023-02-08T01:51:00;44.33;;;16.40;;
64688;SDS011;62504;46.070;14.492;2023-02-08T01:53:32;46.67;;;16.67;;
64688;SDS011;62504;46.070;14.492;2023-02-08T01:55:59;48.23;;;17.70;;
64688;SDS011;62504;46.070;14.492;2023-02-08T01:58:31;46.43;;;16.67;;
64688;SDS011;62504;46.070;14.492;2023-02-08T02:01:02;45.80;;;16.77;;
64688;SDS011;62504;46.070;14.492;2023-02-08T02:03:28;45.87;;;16.93;;
64688;SDS011;62504;46.070;14.492;2023-02-08T02:06:00;48.93;;;16.80;;
64688;SDS011;62504;46.070;14.492;2023-02-08T02:08:35;44.03;;;16.70;;
64688;SDS011;62504;46.070;14.492;2023-02-08T02:11:04;42.57;;;16.70;;
64688;SDS011;62504;46.070;14.492;2023-02-08T02:13:29;44.63;;;15.60;;
64688;SDS011;62504;46.070;14.492;2023-02-08T02:15:56;40.90;;;15.77;;
64688;SDS011;62504;46.070;14.492;2023-02-08T02:18:26;43.40;;;16.13;;
64688;SDS011;62504;46.070;14.492;2023-02-08T02:32:01;39.80;;;15.00;;
64688;SDS011;62504;46.070;14.492;2023-02-08T02:45:53;37.57;;;14.63;;
64688;SDS011;62504;46.070;14.492;2023-02-08T02:54:19;39.97;;;15.23;;
64688;SDS011;62504;46.070;14.492;2023-02-08T02:56:52;42.90;;;14.73;;
64688;SDS011;62504;46.070;14.492;2023-02-08T02:59:22;47.73;;;16.17;;
64688;SDS011;62504;46.070;14.492;2023-02-08T03:01:52;45.87;;;16.00;;
64688;SDS011;62504;46.070;14.492;2023-02-08T03:09:44;41.97;;;15.23;;
64688;SDS011;62504;46.070;14.492;2023-02-08T03:20:41;38.00;;;14.67;;
64688;SDS011;62504;46.070;14.492;2023-02-08T03:25:55;41.63;;;15.07;;
64688;SDS011;62504;46.070;14.492;2023-02-08T03:39:19;36.60;;;15.00;;
64688;SDS011;62504;46.070;14.492;2023-02-08T03:41:48;44.17;;;15.43;;
64688;SDS011;62504;46.070;14.492;2023-02-08T03:44:22;43.50;;;15.67;;
64688;SDS011;62504;46.070;14.492;2023-02-08T03:47:07;41.40;;;15.87;;
64688;SDS011;62504;46.070;14.492;2023-02-08T03:49:37;38.87;;;15.23;;
64688;SDS011;62504;46.070;14.492;2023-02-08T03:52:05;42.23;;;15.90;;
64688;SDS011;62504;46.070;14.492;2023-02-08T03:54:35;40.00;;;15.63;;
64688;SDS011;62504;46.070;14.492;2023-02-08T03:57:18;47.50;;;16.40;;
64688;SDS011;62504;46.070;14.492;2023-02-08T03:59:59;43.27;;;16.03;;
64688;SDS011;62504;46.070;14.492;2023-02-08T04:02:32;40.07;;;15.37;;
64688;SDS011;62504;46.070;14.492;2023-02-08T04:05:01;42.60;;;15.80;;
64688;SDS011;62504;46.070;14.492;2023-02-08T04:07:29;44.70;;;16.70;;
64688;SDS011;62504;46.070;14.492;2023-02-08T04:09:54;41.73;;;15.73;;
64688;SDS011;62504;46.070;14.492;2023-02-08T04:12:20;38.40;;;15.07;;
64688;SDS011;62504;46.070;14.492;2023-02-08T04:14:46;42.13;;;15.20;;
64688;SDS011;62504;46.070;14.492;2023-02-08T04:17:12;42.93;;;16.00;;
64688;SDS011;62504;46.070;14.492;2023-02-08T04:19:37;45.63;;;16.93;;
64688;SDS011;62504;46.070;14.492;2023-02-08T04:22:03;46.77;;;16.57;;
64688;SDS011;62504;46.070;14.492;2023-02-08T04:24:29;41.00;;;15.73;;
64688;SDS011;62504;46.070;14.492;2023-02-08T04:26:54;48.33;;;16.30;;
64688;SDS011;62504;46.070;14.492;2023-02-08T04:29:20;47.73;;;17.37;;
64688;SDS011;62504;46.070;14.492;2023-02-08T04:31:46;45.73;;;16.17;;
64688;SDS011;62504;46.070;14.492;2023-02-08T04:34:11;46.53;;;17.80;;
64688;SDS011;62504;46.070;14.492;2023-02-08T04:36:37;46.63;;;17.03;;
64688;SDS011;62504;46.070;14.492;2023-02-08T04:39:03;43.83;;;16.97;;
64688;SDS011;62504;46.070;14.492;2023-02-08T04:41:29;47.40;;;16.53;;
64688;SDS011;62504;46.070;14.492;2023-02-08T04:43:54;50.80;;;17.33;;
64688;SDS011;62504;46.070;14.492;2023-02-08T04:46:20;44.63;;;16.93;;
64688;SDS011;62504;46.070;14.492;2023-02-08T04:48:46;42.10;;;16.77;;
64688;SDS011;62504;46.070;14.492;2023-02-08T04:51:11;49.87;;;17.93;;
64688;SDS011;62504;46.070;14.492;2023-02-08T04:53:37;44.67;;;17.37;;
64688;SDS011;62504;46.070;14.492;2023-02-08T04:56:03;46.23;;;17.20;;
64688;SDS011;62504;46.070;14.492;2023-02-08T04:58:29;43.43;;;16.93;;
64688;SDS011;62504;46.070;14.492;2023-02-08T05:00:54;48.20;;;16.97;;
64688;SDS011;62504;46.070;14.492;2023-02-08T05:03:20;47.33;;;17.60;;
64688;SDS011;62504;46.070;14.492;2023-02-08T05:05:46;43.17;;;16.53;;
64688;SDS011;62504;46.070;14.492;2023-02-08T05:08:19;43.80;;;15.70;;
64688;SDS011;62504;46.070;14.492;2023-02-08T05:10:45;45.57;;;16.33;;
64688;SDS011;62504;46.070;14.492;2023-02-08T05:13:11;43.80;;;16.90;;
64688;SDS011;62504;46.070;14.492;2023-02-08T05:15:36;40.77;;;15.77;;
64688;SDS011;62504;46.070;14.492;2023-02-08T05:18:02;39.33;;;15.03;;
64688;SDS011;62504;46.070;14.492;2023-02-08T05:20:28;52.27;;;16.47;;
64688;SDS011;62504;46.070;14.492;2023-02-08T05:22:54;40.37;;;14.70;;
64688;SDS011;62504;46.070;14.492;2023-02-08T05:25:20;37.83;;;14.93;;
64688;SDS011;62504;46.070;14.492;2023-02-08T05:27:45;36.87;;;15.47;;
64688;SDS011;62504;46.070;14.492;2023-02-08T05:30:11;39.80;;;15.53;;
64688;SDS011;62504;46.070;14.492;2023-02-08T05:32:37;39.10;;;15.23;;
64688;SDS011;62504;46.070;14.492;2023-02-08T05:35:03;41.07;;;15.57;;
64688;SDS011;62504;46.070;14.492;2023-02-08T05:37:28;47.80;;;17.30;;
64688;SDS011;62504;46.070;14.492;2023-02-08T05:39:54;44.27;;;17.23;;
64688;SDS011;62504;46.070;14.492;2023-02-08T05:42:20;46.23;;;17.93;;
64688;SDS011;62504;46.070;14.492;2023-02-08T05:44:46;46.97;;;18.47;;
64688;SDS011;62504;46.070;14.492;2023-02-08T05:47:11;44.80;;;17.10;;
64688;SDS011;62504;46.070;14.492;2023-02-08T05:49:37;44.87;;;17.40;;
64688;SDS011;62504;46.070;14.492;2023-02-08T05:52:03;46.10;;;17.57;;
64688;SDS011;62504;46.070;14.492;2023-02-08T05:54:29;53.33;;;19.93;;
64688;SDS011;62504;46.070;14.492;2023-02-08T05:56:54;46.93;;;18.90;;
64688;SDS011;62504;46.070;14.492;2023-02-08T05:59:20;48.97;;;17.53;;
64688;SDS011;62504;46.070;14.492;2023-02-08T06:01:46;46.67;;;17.93;;
64688;SDS011;62504;46.070;14.492;2023-02-08T06:04:11;50.97;;;18.63;;
64688;SDS011;62504;46.070;14.492;2023-02-08T06:06:37;46.10;;;18.07;;
64688;SDS011;62504;46.070;14.492;2023-02-08T06:09:03;46.40;;;18.20;;
64688;SDS011;62504;46.070;14.492;2023-02-08T06:11:29;50.00;;;17.73;;
64688;SDS011;62504;46.070;14.492;2023-02-08T06:13:54;47.87;;;17.13;;
64688;SDS011;62504;46.070;14.492;2023-02-08T06:16:20;44.13;;;16.43;;
64688;SDS011;62504;46.070;14.492;2023-02-08T06:18:45;43.20;;;15.87;;
64688;SDS011;62504;46.070;14.492;2023-02-08T06:21:11;43.00;;;15.67;;
64688;SDS011;62504;46.070;14.492;2023-02-08T06:23:37;40.33;;;16.30;;
64688;SDS011;62504;46.070;14.492;2023-02-08T06:26:02;44.90;;;16.73;;
64688;SDS011;62504;46.070;14.492;2023-02-08T06:28:28;45.87;;;16.37;;
64688;SDS011;62504;46.070;14.492;2023-02-08T06:30:54;44.40;;;17.03;;
64688;SDS011;62504;46.070;14.492;2023-02-08T06:33:19;45.40;;;16.60;;
64688;SDS011;62504;46.070;14.492;2023-02-08T06:35:46;43.80;;;17.00;;
64688;SDS011;62504;46.070;14.492;2023-02-08T06:38:13;43.63;;;16.47;;
64688;SDS011;62504;46.070;14.492;2023-02-08T06:40:38;41.27;;;15.97;;
64688;SDS011;62504;46.070;14.492;2023-02-08T06:43:04;40.43;;;15.63;;
64688;SDS011;62504;46.070;14.492;2023-02-08T06:45:33;38.70;;;14.90;;
64688;SDS011;62504;46.070;14.492;2023-02-08T06:47:59;38.87;;;14.73;;
64688;SDS011;62504;46.070;14.492;2023-02-08T06:50:24;40.57;;;16.20;;
64688;SDS011;62504;46.070;14.492;2023-02-08T06:52:50;43.43;;;15.73;;
64688;SDS011;62504;46.070;14.492;2023-02-08T06:55:16;39.77;;;15.33;;
64688;SDS011;62504;46.070;14.492;2023-02-08T06:57:42;43.63;;;17.07;;
64688;SDS011;62504;46.070;14.492;2023-02-08T07:00:08;36.83;;;14.63;;
64688;SDS011;62504;46.070;14.492;2023-02-08T07:02:34;39.50;;;14.73;;
64688;SDS011;62504;46.070;14.492;2023-02-08T07:04:59;44.53;;;15.57;;
64688;SDS011;62504;46.070;14.492;2023-02-08T07:07:26;39.43;;;15.40;;
64688;SDS011;62504;46.070;14.492;2023-02-08T07:09:51;44.27;;;16.47;;
64688;SDS011;62504;46.070;14.492;2023-02-08T07:12:18;45.37;;;15.97;;
64688;SDS011;62504;46.070;14.492;2023-02-08T07:14:44;38.70;;;14.90;;
64688;SDS011;62504;46.070;14.492;2023-02-08T07:17:10;39.47;;;15.67;;
64688;SDS011;62504;46.070;14.492;2023-02-08T07:19:36;41.33;;;15.40;;
64688;SDS011;62504;46.070;14.492;2023-02-08T07:22:02;45.70;;;16.67;;
64688;SDS011;62504;46.070;14.492;2023-02-08T07:24:35;50.60;;;16.63;;
64688;SDS011;62504;46.070;14.492;2023-02-08T07:27:03;52.13;;;17.33;;
64688;SDS011;62504;46.070;14.492;2023-02-08T07:29:30;58.00;;;19.53;;
64688;SDS011;62504;46.070;14.492;2023-02-08T07:31:57;46.63;;;18.07;;
64688;SDS011;62504;46.070;14.492;2023-02-08T07:34:24;46.57;;;17.70;;
64688;SDS011;62504;46.070;14.492;2023-02-08T07:36:50;44.47;;;15.93;;
64688;SDS011;62504;46.070;14.492;2023-02-08T07:39:16;42.23;;;15.90;;
64688;SDS011;62504;46.070;14.492;2023-02-08T07:41:42;40.30;;;16.17;;
64688;SDS011;62504;46.070;14.492;2023-02-08T07:44:08;46.83;;;16.87;;
64688;SDS011;62504;46.070;14.492;2023-02-08T07:46:33;46.73;;;17.00;;
64688;SDS011;62504;46.070;14.492;2023-02-08T07:48:59;60.10;;;28.70;;
64688;SDS011;62504;46.070;14.492;2023-02-08T07:51:24;53.33;;;20.40;;
64688;SDS011;62504;46.070;14.492;2023-02-08T07:53:50;69.00;;;26.53;;
64688;SDS011;62504;46.070;14.492;2023-02-08T07:56:16;46.57;;;18.77;;
64688;SDS011;62504;46.070;14.492;2023-02-08T07:58:42;57.20;;;19.93;;
64688;SDS011;62504;46.070;14.492;2023-02-08T08:01:08;56.50;;;22.43;;
64688;SDS011;62504;46.070;14.492;2023-02-08T08:03:33;42.93;;;17.90;;
64688;SDS011;62504;46.070;14.492;2023-02-08T08:05:59;56.33;;;22.43;;
64688;SDS011;62504;46.070;14.492;2023-02-08T08:08:25;55.60;;;22.30;;
64688;SDS011;62504;46.070;14.492;2023-02-08T08:10:50;49.27;;;19.37;;
64688;SDS011;62504;46.070;14.492;2023-02-08T08:13:16;54.10;;;20.77;;
64688;SDS011;62504;46.070;14.492;2023-02-08T08:15:42;50.83;;;18.87;;
64688;SDS011;62504;46.070;14.492;2023-02-08T08:18:07;40.77;;;17.43;;
64688;SDS011;62504;46.070;14.492;2023-02-08T08:20:33;45.30;;;17.40;;
64688;SDS011;62504;46.070;14.492;2023-02-08T08:23:01;46.47;;;16.70;;
64688;SDS011;62504;46.070;14.492;2023-02-08T08:25:27;47.80;;;17.77;;
64688;SDS011;62504;46.070;14.492;2023-02-08T08:27:53;40.60;;;15.87;;
64688;SDS011;62504;46.070;14.492;2023-02-08T08:30:19;42.33;;;17.87;;
64688;SDS011;62504;46.070;14.492;2023-02-08T08:32:45;41.23;;;16.33;;
64688;SDS011;62504;46.070;14.492;2023-02-08T08:35:11;43.87;;;16.60;;
64688;SDS011;62504;46.070;14.492;2023-02-08T08:37:37;44.10;;;17.17;;
64688;SDS011;62504;46.070;14.492;2023-02-08T08:40:03;45.03;;;15.87;;
64688;SDS011;62504;46.070;14.492;2023-02-08T08:42:31;44.47;;;17.17;;
64688;SDS011;62504;46.070;14.492;2023-02-08T08:44:57;44.47;;;17.63;;
64688;SDS011;62504;46.070;14.492;2023-02-08T08:47:23;43.80;;;17.47;;
64688;SDS011;62504;46.070;14.492;2023-02-08T08:49:49;43.70;;;16.93;;
64688;SDS011;62504;46.070;14.492;2023-02-08T08:52:15;43.07;;;17.37;;
64688;SDS011;62504;46.070;14.492;2023-02-08T08:54:43;42.63;;;16.57;;
64688;SDS011;62504;46.070;14.492;2023-02-08T08:57:09;39.90;;;16.87;;
64688;SDS011;62504;46.070;14.492;2023-02-08T08:59:35;43.17;;;16.83;;
64688;SDS011;62504;46.070;14.492;2023-02-08T09:02:00;45.87;;;17.43;;
64688;SDS011;62504;46.070;14.492;2023-02-08T09:04:26;45.87;;;17.60;;
64688;SDS011;62504;46.070;14.492;2023-02-08T09:06:53;42.77;;;16.90;;
64688;SDS011;62504;46.070;14.492;2023-02-08T09:09:19;42.73;;;17.13;;
64688;SDS011;62504;46.070;14.492;2023-02-08T09:11:46;38.93;;;16.20;;
64688;SDS011;62504;46.070;14.492;2023-02-08T09:14:12;49.43;;;18.53;;
64688;SDS011;62504;46.070;14.492;2023-02-08T09:16:42;43.87;;;17.40;;
64688;SDS011;62504;46.070;14.492;2023-02-08T09:19:12;39.73;;;16.47;;
64688;SDS011;62504;46.070;14.492;2023-02-08T09:21:39;43.10;;;16.37;;
64688;SDS011;62504;46.070;14.492;2023-02-08T09:24:05;45.03;;;17.23;;
64688;SDS011;62504;46.070;14.492;2023-02-08T09:26:31;41.33;;;17.50;;
64688;SDS011;62504;46.070;14.492;2023-02-08T09:28:57;41.57;;;17.70;;
64688;SDS011;62504;46.070;14.492;2023-02-08T09:31:24;43.03;;;17.57;;
64688;SDS011;62504;46.070;14.492;2023-02-08T09:33:52;44.37;;;18.00;;
64688;SDS011;62504;46.070;14.492;2023-02-08T09:36:20;45.97;;;17.70;;
64688;SDS011;62504;46.070;14.492;2023-02-08T09:38:47;43.57;;;17.67;;
64688;SDS011;62504;46.070;14.492;2023-02-08T09:46:17;46.03;;;17.13;;
64688;SDS011;62504;46.070;14.492;2023-02-08T09:48:49;46.53;;;16.83;;
64688;SDS011;62504;46.070;14.492;2023-02-08T09:51:20;42.37;;;17.37;;
64688;SDS011;62504;46.070;14.492;2023-02-08T09:54:12;41.47;;;16.57;;
64688;SDS011;62504;46.070;14.492;2023-02-08T09:56:42;42.80;;;16.53;;
64688;SDS011;62504;46.070;14.492;2023-02-08T09:59:16;39.63;;;15.70;;
64688;SDS011;62504;46.070;14.492;2023-02-08T10:01:52;39.07;;;16.13;;
64688;SDS011;62504;46.070;14.492;2023-02-08T10:04:27;37.57;;;16.10;;
64688;SDS011;62504;46.070;14.492;2023-02-08T10:07:10;39.40;;;15.57;;
64688;SDS011;62504;46.070;14.492;2023-02-08T10:09:36;40.30;;;15.90;;
64688;SDS011;62504;46.070;14.492;2023-02-08T10:30:46;36.23;;;14.47;;
64688;SDS011;62504;46.070;14.492;2023-02-08T10:36:08;36.73;;;14.13;;
64688;SDS011;62504;46.070;14.492;2023-02-08T10:38:40;34.97;;;15.03;;
64688;SDS011;62504;46.070;14.492;2023-02-08T10:41:06;31.13;;;14.00;;
64688;SDS011;62504;46.070;14.492;2023-02-08T10:43:39;30.00;;;12.43;;
64688;SDS011;62504;46.070;14.492;2023-02-08T10:51:44;35.70;;;13.50;;
64688;SDS011;62504;46.070;14.492;2023-02-08T10:54:14;31.20;;;12.90;;
64688;SDS011;62504;46.070;14.492;2023-02-08T10:59:16;30.07;;;13.30;;
64688;SDS011;62504;46.070;14.492;2023-02-08T11:01:46;33.70;;;14.13;;
64688;SDS011;62504;46.070;14.492;2023-02-08T11:04:13;33.63;;;15.47;;
64688;SDS011;62504;46.070;14.492;2023-02-08T11:06:42;33.43;;;14.43;;
64688;SDS011;62504;46.070;14.492;2023-02-08T11:11:56;32.27;;;14.53;;
64688;SDS011;62504;46.070;14.492;2023-02-08T11:14:26;37.23;;;15.33;;
64688;SDS011;62504;46.070;14.492;2023-02-08T11:16:56;39.13;;;15.23;;
64688;SDS011;62504;46.070;14.492;2023-02-08T11:19:27;33.30;;;13.27;;
64688;SDS011;62504;46.070;14.492;2023-02-08T11:21:58;31.73;;;13.13;;
64688;SDS011;62504;46.070;14.492;2023-02-08T11:24:28;33.23;;;13.23;;
64688;SDS011;62504;46.070;14.492;2023-02-08T11:27:00;32.00;;;12.97;;
64688;SDS011;62504;46.070;14.492;2023-02-08T11:29:27;30.77;;;12.53;;
64688;SDS011;62504;46.070;14.492;2023-02-08T11:31:59;32.03;;;13.73;;
64688;SDS011;62504;46.070;14.492;2023-02-08T11:34:33;33.93;;;13.10;;
64688;SDS011;62504;46.070;14.492;2023-02-08T11:37:03;25.27;;;10.97;;
64688;SDS011;62504;46.070;14.492;2023-02-08T11:39:38;25.77;;;10.47;;
64688;SDS011;62504;46.070;14.492;2023-02-08T11:42:12;31.10;;;10.73;;
64688;SDS011;62504;46.070;14.492;2023-02-08T11:44:47;30.40;;;12.23;;
64688;SDS011;62504;46.070;14.492;2023-02-08T11:47:15;22.60;;;9.93;;
64688;SDS011;62504;46.070;14.492;2023-02-08T11:49:54;18.87;;;7.70;;
64688;SDS011;62504;46.070;14.492;2023-02-08T11:52:25;23.00;;;9.10;;
64688;SDS011;62504;46.070;14.492;2023-02-08T11:54:54;30.63;;;13.20;;
64688;SDS011;62504;46.070;14.492;2023-02-08T11:57:50;16.97;;;7.50;;
64688;SDS011;62504;46.070;14.492;2023-02-08T12:00:23;23.63;;;9.43;;
64688;SDS011;62504;46.070;14.492;2023-02-08T12:02:53;22.37;;;7.90;;
64688;SDS011;62504;46.070;14.492;2023-02-08T12:05:34;16.23;;;7.07;;
64688;SDS011;62504;46.070;14.492;2023-02-08T12:08:13;22.50;;;7.93;;
64688;SDS011;62504;46.070;14.492;2023-02-08T12:16:11;22.57;;;8.97;;
64688;SDS011;62504;46.070;14.492;2023-02-08T12:18:55;14.97;;;5.73;;
64688;SDS011;62504;46.070;14.492;2023-02-08T12:21:44;14.87;;;6.57;;
64688;SDS011;62504;46.070;14.492;2023-02-08T12:38:30;14.83;;;6.30;;
64688;SDS011;62504;46.070;14.492;2023-02-08T12:41:39;15.73;;;7.50;;
64688;SDS011;62504;46.070;14.492;2023-02-08T12:50:05;17.10;;;7.20;;
64688;SDS011;62504;46.070;14.492;2023-02-08T12:52:49;13.40;;;6.53;;
64688;SDS011;62504;46.070;14.492;2023-02-08T12:55:29;16.03;;;6.67;;
64688;SDS011;62504;46.070;14.492;2023-02-08T12:58:01;16.80;;;6.77;;
64688;SDS011;62504;46.070;14.492;2023-02-08T13:00:47;13.80;;;6.30;;
64688;SDS011;62504;46.070;14.492;2023-02-08T13:03:33;15.67;;;6.77;;
64688;SDS011;62504;46.070;14.492;2023-02-08T13:06:06;13.43;;;6.23;;
64688;SDS011;62504;46.070;14.492;2023-02-08T13:11:19;14.97;;;6.50;;
64688;SDS011;62504;46.070;14.492;2023-02-08T13:13:52;18.87;;;6.47;;
64688;SDS011;62504;46.070;14.492;2023-02-08T13:16:27;18.03;;;6.83;;
64688;SDS011;62504;46.070;14.492;2023-02-08T13:21:31;17.07;;;6.77;;
64688;SDS011;62504;46.070;14.492;2023-02-08T13:24:14;14.43;;;6.17;;
64688;SDS011;62504;46.070;14.492;2023-02-08T13:26:54;13.57;;;5.70;;
64688;SDS011;62504;46.070;14.492;2023-02-08T13:29:20;14.03;;;6.23;;
64688;SDS011;62504;46.070;14.492;2023-02-08T13:31:49;16.07;;;6.00;;
64688;SDS011;62504;46.070;14.492;2023-02-08T13:37:01;16.00;;;6.30;;
64688;SDS011;62504;46.070;14.492;2023-02-08T13:39:38;15.90;;;6.53;;
64688;SDS011;62504;46.070;14.492;2023-02-08T13:42:17;13.23;;;6.17;;
64688;SDS011;62504;46.070;14.492;2023-02-08T13:44:51;18.90;;;6.57;;
64688;SDS011;62504;46.070;14.492;2023-02-08T13:47:26;15.80;;;6.70;;
64688;SDS011;62504;46.070;14.492;2023-02-08T13:49:58;14.23;;;6.10;;
64688;SDS011;62504;46.070;14.492;2023-02-08T14:00:28;13.70;;;5.70;;
64688;SDS011;62504;46.070;14.492;2023-02-08T14:02:59;13.50;;;5.47;;
64688;SDS011;62504;46.070;14.492;2023-02-08T14:08:21;12.60;;;5.77;;
64688;SDS011;62504;46.070;14.492;2023-02-08T14:10:50;13.63;;;6.03;;
64688;SDS011;62504;46.070;14.492;2023-02-08T14:13:31;16.77;;;5.73;;
64688;SDS011;62504;46.070;14.492;2023-02-08T14:18:57;16.80;;;6.63;;
64688;SDS011;62504;46.070;14.492;2023-02-08T14:21:32;16.10;;;6.33;;
64688;SDS011;62504;46.070;14.492;2023-02-08T14:26:30;19.07;;;6.97;;
64688;SDS011;62504;46.070;14.492;2023-02-08T14:28:57;18.90;;;7.13;;
64688;SDS011;62504;46.070;14.492;2023-02-08T14:31:35;18.57;;;7.10;;
64688;SDS011;62504;46.070;14.492;2023-02-08T14:34:04;17.70;;;7.83;;
64688;SDS011;62504;46.070;14.492;2023-02-08T14:36:43;18.30;;;7.30;;
64688;SDS011;62504;46.070;14.492;2023-02-08T14:39:28;18.33;;;8.17;;
64688;SDS011;62504;46.070;14.492;2023-02-08T14:41:58;20.93;;;8.27;;
64688;SDS011;62504;46.070;14.492;2023-02-08T14:47:11;22.50;;;8.97;;
64688;SDS011;62504;46.070;14.492;2023-02-08T14:52:41;20.77;;;8.47;;
64688;SDS011;62504;46.070;14.492;2023-02-08T14:55:24;19.27;;;8.23;;
64688;SDS011;62504;46.070;14.492;2023-02-08T14:57:54;21.63;;;9.00;;
64688;SDS011;62504;46.070;14.492;2023-02-08T15:00:24;21.40;;;8.17;;
64688;SDS011;62504;46.070;14.492;2023-02-08T15:02:56;21.83;;;8.90;;
64688;SDS011;62504;46.070;14.492;2023-02-08T15:05:25;23.20;;;8.57;;
64688;SDS011;62504;46.070;14.492;2023-02-08T15:07:53;22.03;;;8.57;;
64688;SDS011;62504;46.070;14.492;2023-02-08T15:10:25;21.03;;;8.77;;
64688;SDS011;62504;46.070;14.492;2023-02-08T15:12:53;21.07;;;9.70;;
64688;SDS011;62504;46.070;14.492;2023-02-08T15:18:02;19.73;;;8.90;;
64688;SDS011;62504;46.070;14.492;2023-02-08T15:20:31;21.40;;;9.40;;
64688;SDS011;62504;46.070;14.492;2023-02-08T15:23:02;23.37;;;9.63;;
64688;SDS011;62504;46.070;14.492;2023-02-08T15:25:40;24.47;;;9.53;;
64688;SDS011;62504;46.070;14.492;2023-02-08T15:28:17;22.70;;;8.90;;
64688;SDS011;62504;46.070;14.492;2023-02-08T15:30:51;27.10;;;9.23;;
64688;SDS011;62504;46.070;14.492;2023-02-08T15:33:20;19.90;;;9.43;;
64688;SDS011;62504;46.070;14.492;2023-02-08T15:35:53;28.50;;;11.23;;
64688;SDS011;62504;46.070;14.492;2023-02-08T15:38:27;31.67;;;11.50;;
64688;SDS011;62504;46.070;14.492;2023-02-08T15:41:01;26.23;;;10.30;;
64688;SDS011;62504;46.070;14.492;2023-02-08T15:43:30;27.23;;;10.50;;
64688;SDS011;62504;46.070;14.492;2023-02-08T15:46:01;24.97;;;9.40;;
64688;SDS011;62504;46.070;14.492;2023-02-08T15:48:40;25.97;;;10.23;;
64688;SDS011;62504;46.070;14.492;2023-02-08T15:51:08;25.20;;;10.40;;
64688;SDS011;62504;46.070;14.492;2023-02-08T15:53:39;24.23;;;9.87;;
64688;SDS011;62504;46.070;14.492;2023-02-08T15:56:07;23.17;;;9.40;;
64688;SDS011;62504;46.070;14.492;2023-02-08T15:58:34;24.93;;;9.93;;
64688;SDS011;62504;46.070;14.492;2023-02-08T16:01:04;21.13;;;9.50;;
64688;SDS011;62504;46.070;14.492;2023-02-08T16:03:33;23.50;;;9.37;;
64688;SDS011;62504;46.070;14.492;2023-02-08T16:06:01;21.50;;;8.97;;
64688;SDS011;62504;46.070;14.492;2023-02-08T16:08:30;26.73;;;10.53;;
64688;SDS011;62504;46.070;14.492;2023-02-08T16:11:07;24.83;;;9.30;;
64688;SDS011;62504;46.070;14.492;2023-02-08T16:13:55;21.57;;;9.17;;
64688;SDS011;62504;46.070;14.492;2023-02-08T16:16:23;26.27;;;10.37;;
64688;SDS011;62504;46.070;14.492;2023-02-08T16:18:59;19.03;;;8.60;;
64688;SDS011;62504;46.070;14.492;2023-02-08T16:29:18;18.23;;;8.03;;
64688;SDS011;62504;46.070;14.492;2023-02-08T16:32:04;21.63;;;8.80;;
64688;SDS011;62504;46.070;14.492;2023-02-08T16:34:31;24.10;;;8.83;;
64688;SDS011;62504;46.070;14.492;2023-02-08T16:37:02;22.50;;;8.33;;
64688;SDS011;62504;46.070;14.492;2023-02-08T16:39:34;19.83;;;8.70;;
64688;SDS011;62504;46.070;14.492;2023-02-08T16:42:04;21.57;;;8.63;;
64688;SDS011;62504;46.070;14.492;2023-02-08T16:45:28;20.23;;;8.27;;
64688;SDS011;62504;46.070;14.492;2023-02-08T16:47:40;22.27;;;9.20;;
64688;SDS011;62504;46.070;14.492;2023-02-08T16:50:10;19.00;;;8.17;;
64688;SDS011;62504;46.070;14.492;2023-02-08T16:53:03;21.23;;;8.83;;
64688;SDS011;62504;46.070;14.492;2023-02-08T16:55:29;22.70;;;9.10;;
64688;SDS011;62504;46.070;14.492;2023-02-08T16:57:57;23.83;;;9.93;;
64688;SDS011;62504;46.070;14.492;2023-02-08T17:00:27;26.50;;;10.17;;
64688;SDS011;62504;46.070;14.492;2023-02-08T17:02:58;25.37;;;9.33;;